Time;durP1;ratioP1;P1;durP2;ratioP2;P2;SDS_P1;SDS_P2;PMS_P1;PMS_P2;Temp;Humidity;BMP_temperature;BMP_pressure;BME280_temperature;BME280_humidity;BME280_pressure;Samples;Min_cycle;Max_cycle;Signal;HPM_P1;HPM_P2
2022/09/04 00:00:17;;;;;;;14.10;2.42;;;;;;;23.53;53.46;100426.06;5031965;28;20120;-90
2022/09/04 00:03:06;;;;;;;9.52;2.00;;;;;;;23.64;53.24;100426.00;5037233;28;20113;-76
2022/09/04 00:05:37;;;;;;;10.07;2.17;;;;;;;23.65;53.24;100433.97;5034330;28;20036;-81
2022/09/04 00:08:24;;;;;;;12.98;2.10;;;;;;;23.72;53.26;100427.56;5035394;28;20105;-76
2022/09/04 00:11:21;;;;;;;13.05;2.42;;;;;;;23.66;53.59;100418.84;5038081;28;20064;-76
2022/09/04 00:13:56;;;;;;;7.03;1.80;;;;;;;23.62;53.67;100420.84;5038896;28;20035;-77
2022/09/04 00:16:31;;;;;;;8.77;1.80;;;;;;;23.75;53.44;100412.81;5038663;28;20025;-76
2022/09/04 00:19:14;;;;;;;11.65;2.22;;;;;;;23.76;53.88;100406.00;5044687;28;20025;-87
2022/09/04 00:21:51;;;;;;;12.15;2.72;;;;;;;23.75;54.05;100404.44;5039810;28;20029;-92
2022/09/04 00:24:20;;;;;;;12.23;2.35;;;;;;;23.77;53.83;100397.22;5037433;28;20101;-92
2022/09/04 00:27:01;;;;;;;14.70;2.45;;;;;;;23.77;54.25;100377.69;5017720;28;20021;-92
2022/09/04 00:29:41;;;;;;;12.85;3.83;;;;;;;23.87;53.75;100369.66;5017467;28;20515;-76
2022/09/04 00:32:10;;;;;;;19.00;4.45;;;;;;;23.80;53.86;100362.94;5017416;28;20109;-76
2022/09/04 00:34:50;;;;;;;18.00;3.38;;;;;;;23.73;54.83;100362.22;5017360;28;20114;-89
2022/09/04 00:37:21;;;;;;;12.10;3.13;;;;;;;23.66;55.01;100357.50;5016881;28;20026;-92
2022/09/04 00:39:55;;;;;;;14.90;4.13;;;;;;;23.62;55.42;100353.91;5017264;28;20026;-92
2022/09/04 00:42:33;;;;;;;13.60;3.67;;;;;;;23.86;54.28;100340.94;5017045;28;20030;-76
2022/09/04 00:45:26;;;;;;;20.15;4.88;;;;;;;23.61;56.40;100338.41;5035017;28;20037;-89
2022/09/04 00:48:20;;;;;;;20.23;5.25;;;;;;;23.65;56.78;100333.56;5017170;28;20476;-76
2022/09/04 00:50:53;;;;;;;24.95;4.55;;;;;;;23.69;56.15;100331.56;5016792;28;20026;-85
2022/09/04 00:53:40;;;;;;;12.85;3.92;;;;;;;23.49;57.26;100322.13;5017077;28;20053;-76
2022/09/04 00:56:09;;;;;;;9.95;3.17;;;;;;;23.15;58.70;100322.00;5022576;28;20039;-92
2022/09/04 00:59:14;;;;;;;18.98;4.65;;;;;;;23.09;58.72;100320.84;5036397;28;20104;-92
2022/09/04 01:01:43;;;;;;;26.40;3.60;;;;;;;23.18;58.20;100310.81;5036224;28;20029;-91
2022/09/04 01:04:51;;;;;;;7.65;2.17;;;;;;;23.21;58.15;100301.66;5036476;28;20049;-86
2022/09/04 01:07:39;;;;;;;14.82;2.95;;;;;;;22.93;58.84;100285.13;5036107;28;20491;-76
2022/09/04 01:10:18;;;;;;;20.63;3.47;;;;;;;23.26;57.55;100292.03;5034747;28;20030;-86
2022/09/04 01:12:52;;;;;;;9.65;3.13;;;;;;;23.22;57.91;100289.31;5035930;28;20025;-85
2022/09/04 01:15:27;;;;;;;11.13;2.78;;;;;;;23.30;57.08;100286.47;5036464;28;20506;-76
2022/09/04 01:18:17;;;;;;;11.00;2.78;;;;;;;23.19;57.39;100278.94;5034783;28;20403;-93
2022/09/04 01:21:01;;;;;;;9.80;3.05;;;;;;;23.26;56.96;100276.09;5035555;28;20079;-76
2022/09/04 01:23:48;;;;;;;11.75;6.50;;;;;;;23.28;57.07;100269.34;5035909;28;20037;-92
2022/09/04 01:26:36;;;;;;;13.25;2.58;;;;;;;23.16;57.52;100245.56;5034208;28;20061;-76
2022/09/04 01:29:39;;;;;;;8.07;2.25;;;;;;;23.28;57.25;100247.06;5035866;28;20451;-79
2022/09/04 01:32:04;;;;;;;5.57;1.45;;;;;;;23.34;56.97;100235.03;5035561;28;20029;-78
2022/09/04 01:34:52;;;;;;;8.02;2.03;;;;;;;23.32;57.49;100229.09;5035476;28;20492;-91
2022/09/04 01:37:51;;;;;;;14.48;12.45;;;;;;;23.41;57.32;100220.25;5035641;28;20522;-76
2022/09/04 01:40:35;;;;;;;18.75;5.22;;;;;;;23.20;58.70;100205.31;5035196;28;20558;-76
2022/09/04 01:43:11;;;;;;;18.27;5.50;;;;;;;23.21;58.72;100192.97;5035432;28;20026;-77
2022/09/04 01:46:01;;;;;;;20.38;8.68;;;;;;;22.89;60.92;100179.28;5034991;28;20124;-90
2022/09/04 01:48:46;;;;;;;26.63;10.70;;;;;;;22.96;61.26;100186.78;5035361;28;20026;-76
2022/09/04 01:51:31;;;;;;;20.95;9.13;;;;;;;23.02;61.13;100182.38;5034989;28;20104;-76
2022/09/04 01:54:15;;;;;;;26.98;10.95;;;;;;;23.23;60.22;100182.19;5034982;28;20380;-90
2022/09/04 01:56:53;;;;;;;26.50;8.30;;;;;;;23.05;61.33;100189.91;5033438;28;20036;-90
2022/09/04 01:59:28;;;;;;;28.45;15.23;;;;;;;22.98;61.59;100179.63;5035045;28;20025;-76
2022/09/04 02:02:27;;;;;;;24.60;10.88;;;;;;;23.04;61.51;100182.75;5034860;28;20064;-76
2022/09/04 02:04:59;;;;;;;29.60;13.10;;;;;;;22.79;62.48;100171.00;5034823;28;20051;-77
2022/09/04 02:07:44;;;;;;;21.52;13.18;;;;;;;22.45;64.54;100151.38;5033981;28;20361;-77
2022/09/04 02:10:29;;;;;;;31.80;11.13;;;;;;;22.39;64.82;100142.66;5025925;28;20536;-90
2022/09/04 02:13:03;;;;;;;27.65;16.95;;;;;;;22.50;64.70;100143.34;5015258;28;20022;-77
2022/09/04 02:16:07;;;;;;;29.48;20.70;;;;;;;22.62;63.99;100145.66;5026191;28;20040;-76
2022/09/04 02:18:54;;;;;;;32.80;15.82;;;;;;;22.48;64.65;100145.75;5035124;28;20052;-76
2022/09/04 02:21:38;;;;;;;30.85;18.98;;;;;;;22.80;63.26;100139.16;5035262;28;20017;-81
2022/09/04 02:24:19;;;;;;;42.10;21.63;;;;;;;22.68;64.04;100127.31;5034854;28;20455;-76
2022/09/04 02:27:02;;;;;;;40.63;25.08;;;;;;;22.84;63.15;100098.16;5034638;28;20025;-76
2022/09/04 02:29:42;;;;;;;45.90;26.02;;;;;;;23.06;62.06;100085.63;5034609;28;20368;-76
2022/09/04 02:32:13;;;;;;;45.58;23.90;;;;;;;22.93;62.67;100074.19;5034272;28;20025;-90
2022/09/04 02:35:08;;;;;;;42.08;26.63;;;;;;;22.99;62.42;100077.34;5034439;28;20021;-76
2022/09/04 02:37:37;;;;;;;42.15;13.45;;;;;;;22.86;62.86;100070.69;5015716;28;20064;-87
2022/09/04 02:40:31;;;;;;;44.15;7.38;;;;;;;22.71;63.56;100054.09;5014645;28;20373;-76
2022/09/04 02:43:02;;;;;;;46.42;19.98;;;;;;;22.57;64.35;100036.72;5014862;28;20034;-76
2022/09/04 02:45:54;;;;;;;29.35;6.90;;;;;;;22.56;64.45;100032.34;5029490;28;20049;-77
2022/09/04 02:48:27;;;;;;;45.65;9.10;;;;;;;22.53;64.34;100024.84;5033973;28;20087;-76
2022/09/04 02:51:25;;;;;;;31.83;8.82;;;;;;;22.34;65.08;100004.69;5032725;28;20048;-77
2022/09/04 02:54:08;;;;;;;52.13;17.02;;;;;;;22.71;63.65;99995.59;5034054;28;20388;-76
2022/09/04 02:56:57;;;;;;;36.03;12.60;;;;;;;22.47;64.80;99985.50;5033633;28;20167;-76
2022/09/04 02:59:47;;;;;;;36.35;11.45;;;;;;;22.27;65.65;99988.06;5033932;28;20056;-78
2022/09/04 03:02:35;;;;;;;25.52;22.15;;;;;;;22.33;65.79;99966.94;5033317;28;20061;-78
2022/09/04 03:05:12;;;;;;;32.22;21.27;;;;;;;22.43;64.83;99971.59;5032631;28;20388;-76
2022/09/04 03:07:56;;;;;;;35.58;29.83;;;;;;;21.98;67.23;99964.41;5033891;28;20017;-89
2022/09/04 03:10:30;;;;;;;50.70;43.85;;;;;;;22.21;66.17;99958.31;5033854;28;20033;-77
2022/09/04 03:13:04;;;;;;;46.75;30.27;;;;;;;22.38;65.60;99951.81;5033473;28;20083;-78
2022/09/04 03:15:44;;;;;;;28.17;24.00;;;;;;;22.00;66.89;99926.66;5033759;28;20032;-76
2022/09/04 03:18:11;;;;;;;36.13;23.35;;;;;;;21.97;67.49;99924.69;5033828;28;20029;-77
2022/09/04 03:20:47;;;;;;;44.63;30.88;;;;;;;22.03;67.34;99911.94;5033961;28;20017;-89
2022/09/04 03:23:38;;;;;;;55.10;30.52;;;;;;;21.88;67.63;99896.56;5033807;28;20040;-76
2022/09/04 03:26:13;;;;;;;47.50;39.90;;;;;;;22.00;67.34;99901.63;5033976;28;20082;-80
2022/09/04 03:28:53;;;;;;;37.25;30.85;;;;;;;21.80;67.96;99886.69;5033815;28;20075;-89
2022/09/04 03:31:39;;;;;;;45.85;32.30;;;;;;;21.73;68.37;99881.19;5033388;28;20173;-90
2022/09/04 03:34:26;;;;;;;36.13;17.58;;;;;;;21.60;69.09;99876.13;5033655;28;20025;-89
2022/09/04 03:37:03;;;;;;;31.98;10.07;;;;;;;21.64;69.10;99880.88;5033984;28;20534;-90
2022/09/04 03:39:34;;;;;;;42.10;33.05;;;;;;;21.75;68.75;99854.56;5033174;28;20107;-91
2022/09/04 03:42:15;;;;;;;36.97;22.42;;;;;;;21.60;69.22;99851.09;5032910;28;20599;-77
2022/09/04 03:44:56;;;;;;;44.78;23.00;;;;;;;21.41;69.63;99834.19;5031863;28;20033;-78
2022/09/04 03:47:50;;;;;;;42.40;12.25;;;;;;;21.08;71.83;99802.22;5033444;28;20033;-77
2022/09/04 03:50:28;;;;;;;44.33;28.83;;;;;;;21.32;70.87;99829.09;5033315;28;20039;-90
2022/09/04 03:53:11;;;;;;;41.50;26.50;;;;;;;21.43;70.47;99829.81;5032058;28;20033;-77
2022/09/04 03:56:08;;;;;;;43.38;20.80;;;;;;;21.51;69.72;99850.00;5033220;28;20034;-91
2022/09/04 03:58:42;;;;;;;31.90;9.98;;;;;;;21.61;69.82;99824.09;5033152;28;20029;-76
2022/09/04 04:01:30;;;;;;;37.92;9.10;;;;;;;21.58;69.74;99794.34;5032615;28;20034;-92
2022/09/04 04:04:07;;;;;;;26.83;9.27;;;;;;;21.69;69.54;99788.69;5032963;28;20036;-90
2022/09/04 04:06:42;;;;;;;41.67;10.23;;;;;;;21.50;70.02;99785.28;5033167;28;20033;-76
2022/09/04 04:09:14;;;;;;;36.00;11.25;;;;;;;21.94;68.39;99769.78;5033243;28;20041;-92
2022/09/04 04:12:01;;;;;;;42.05;10.88;;;;;;;21.71;68.71;99764.06;5032973;28;20030;-92
2022/09/04 04:14:39;;;;;;;44.22;11.25;;;;;;;21.96;68.38;99781.28;5033005;28;20029;-91
2022/09/04 04:17:05;;;;;;;46.25;12.10;;;;;;;22.14;67.70;99826.44;5032962;28;20033;-81
2022/09/04 04:20:04;;;;;;;42.95;25.80;;;;;;;22.71;64.53;99820.19;5028304;28;20025;-90
2022/09/04 04:22:38;;;;;;;15.07;7.05;;;;;;;22.62;63.03;99805.97;5028882;28;20044;-86
2022/09/04 04:25:28;;;;;;;11.15;10.23;;;;;;;22.58;60.83;99846.19;5034341;28;20029;-91
2022/09/04 04:28:25;;;;;;;8.52;7.63;;;;;;;22.41;59.49;99859.13;5034102;28;20017;-91
2022/09/04 04:30:55;;;;;;;16.33;15.45;;;;;;;22.17;60.08;99877.66;4993876;28;20065;-92
2022/09/04 04:33:41;;;;;;;12.10;11.45;;;;;;;22.43;58.66;99871.41;5032387;28;20109;-92
2022/09/04 04:36:28;;;;;;;2.60;2.40;;;;;;;22.46;57.46;99866.25;5033795;28;20014;-93
2022/09/04 04:39:23;;;;;;;5.25;4.95;;;;;;;22.07;57.99;99904.34;5032988;28;20120;-91
2022/09/04 04:42:07;;;;;;;9.02;8.40;;;;;;;22.13;56.89;99935.31;5014539;28;20156;-90
2022/09/04 04:48:15;;;;;;;1.48;1.08;;;;;;;21.59;56.68;100013.53;5030358;28;20549;-93
2022/09/04 04:50:58;;;;;;;2.70;2.58;;;;;;;21.44;57.29;100039.81;5032920;28;20026;-91
2022/09/04 04:53:44;;;;;;;2.38;2.05;;;;;;;21.24;57.51;100047.81;5021985;28;20197;-92
2022/09/04 04:56:33;;;;;;;5.03;4.72;;;;;;;21.18;57.39;100068.84;5027140;28;20029;-94
2022/09/04 04:59:22;;;;;;;0.70;0.55;;;;;;;21.32;56.97;100093.06;5034746;28;20468;-93
2022/09/04 05:02:06;;;;;;;9.27;8.75;;;;;;;21.06;57.64;100116.50;5030700;28;20056;-93
2022/09/04 05:04:52;;;;;;;6.82;6.50;;;;;;;21.03;57.19;100120.06;5037481;28;20037;-92
2022/09/04 05:07:35;;;;;;;1.05;0.77;;;;;;;21.15;57.20;100125.19;5032018;28;20033;-78
2022/09/04 05:10:11;;;;;;;1.70;0.70;;;;;;;21.33;56.20;100139.09;5020299;28;20017;-95
2022/09/04 05:12:49;;;;;;;0.82;0.60;;;;;;;21.36;56.39;100141.06;5036823;28;20029;-95
2022/09/04 05:15:25;;;;;;;1.83;0.70;;;;;;;21.32;55.96;100154.19;5037747;28;20034;-93
2022/09/04 05:18:00;;;;;;;1.55;0.70;;;;;;;21.35;55.99;100181.16;5020537;28;20030;-91
2022/09/04 05:20:44;;;;;;;0.98;0.70;;;;;;;21.38;55.52;100171.22;5018817;28;20026;-92
2022/09/04 05:23:57;;;;;;;1.40;0.70;;;;;;;21.35;55.28;100175.59;5031717;28;20033;-93
2022/09/04 05:26:38;;;;;;;0.50;0.50;;;;;;;20.98;56.12;100143.47;4992843;28;20035;-93
2022/09/04 05:29:30;;;;;;;1.40;0.50;;;;;;;21.16;55.27;100165.69;5036187;28;20040;-95
2022/09/04 05:32:20;;;;;;;1.95;0.50;;;;;;;21.39;54.64;100176.41;5018930;28;20033;-78
2022/09/04 05:35:10;;;;;;;1.35;0.60;;;;;;;21.49;54.52;100147.00;5019654;28;20072;-94
2022/09/04 05:37:54;;;;;;;1.40;0.90;;;;;;;21.62;54.04;100125.13;5052141;28;20561;-93
2022/09/04 05:40:28;;;;;;;0.93;0.50;;;;;;;21.65;54.13;100152.91;5036003;28;20028;-81
2022/09/04 05:43:31;;;;;;;1.25;0.60;;;;;;;21.64;53.79;100161.66;5034216;28;20361;-92
2022/09/04 05:46:13;;;;;;;2.00;1.05;;;;;;;21.66;54.07;100184.28;5005636;28;20058;-91
2022/09/04 05:49:02;;;;;;;1.15;0.70;;;;;;;21.63;54.05;100187.88;5029445;28;20022;-88
2022/09/04 05:51:51;;;;;;;0.63;0.63;;;;;;;21.55;54.34;100203.78;5027008;28;20022;-76
2022/09/04 05:54:26;;;;;;;0.95;0.85;;;;;;;21.53;53.94;100220.81;5027730;28;20108;-81
2022/09/04 05:57:05;;;;;;;6.65;2.95;;;;;;;21.47;54.12;100232.78;5021401;28;20038;-87
2022/09/04 05:59:58;;;;;;;1.55;0.90;;;;;;;21.33;54.21;100250.25;5029951;28;20020;-77
2022/09/04 06:02:29;;;;;;;1.25;1.15;;;;;;;21.37;53.93;100270.47;5025630;28;20033;-92
2022/09/04 06:04:58;;;;;;;1.05;0.70;;;;;;;21.38;53.90;100285.97;5020377;28;20480;-92
2022/09/04 06:07:53;;;;;;;2.70;0.90;;;;;;;21.35;53.88;100306.22;5023723;28;20025;-89
2022/09/04 06:10:29;;;;;;;2.30;0.80;;;;;;;21.36;53.61;100320.91;5019396;28;20121;-91
2022/09/04 06:13:14;;;;;;;1.80;0.90;;;;;;;21.31;53.63;100333.19;5025785;28;20079;-91
2022/09/04 06:16:05;;;;;;;0.98;0.70;;;;;;;21.29;53.60;100341.13;5022420;28;20044;-92
2022/09/04 06:19:09;;;;;;;2.17;0.77;;;;;;;21.22;53.62;100349.44;5049135;28;20025;-89
2022/09/04 06:21:55;;;;;;;1.73;0.60;;;;;;;21.19;53.64;100364.13;5025774;28;20022;-77
2022/09/04 06:24:39;;;;;;;1.77;0.52;;;;;;;21.11;53.48;100381.97;5021622;28;20054;-92
2022/09/04 06:28:02;;;;;;;0.98;0.70;;;;;;;21.11;53.58;100398.63;5048932;28;20033;-92
2022/09/04 06:30:37;;;;;;;1.52;0.52;;;;;;;21.04;53.63;100427.97;4981885;28;20026;-93
2022/09/04 06:33:05;;;;;;;1.00;0.68;;;;;;;21.01;53.55;100427.97;4978403;28;20109;-91
2022/09/04 06:35:50;;;;;;;1.25;0.88;;;;;;;21.05;53.47;100428.78;5005198;28;20041;-92
2022/09/04 06:38:30;;;;;;;2.70;1.00;;;;;;;20.97;53.41;100430.72;5014655;28;20076;-91
2022/09/04 06:41:18;;;;;;;1.27;0.80;;;;;;;20.97;53.30;100432.72;5032040;28;20389;-91
2022/09/04 06:44:12;;;;;;;0.98;0.75;;;;;;;21.01;53.45;100450.19;5035120;28;20025;-91
2022/09/04 06:46:49;;;;;;;2.83;0.80;;;;;;;21.09;53.37;100451.81;5029829;28;20046;-91
2022/09/04 06:49:25;;;;;;;1.08;0.68;;;;;;;21.16;53.44;100451.00;5035435;28;20025;-92
2022/09/04 06:52:18;;;;;;;1.33;0.80;;;;;;;21.13;53.62;100463.72;5034018;28;20472;-91
2022/09/04 06:55:03;;;;;;;2.80;1.10;;;;;;;21.12;53.61;100442.69;5020305;28;20022;-91
2022/09/04 06:57:38;;;;;;;1.08;0.70;;;;;;;21.18;53.61;100440.34;5033350;28;20506;-91
2022/09/04 07:00:12;;;;;;;0.85;0.68;;;;;;;21.27;53.61;100458.25;5018398;28;20049;-92
2022/09/04 07:02:56;;;;;;;3.63;0.80;;;;;;;21.18;53.93;100455.00;5028550;28;20045;-88
2022/09/04 07:05:36;;;;;;;1.05;0.60;;;;;;;21.29;54.05;100452.28;5014571;28;20216;-91
2022/09/04 07:08:27;;;;;;;0.85;0.70;;;;;;;21.37;53.75;100453.09;5023542;28;20030;-90
2022/09/04 07:11:17;;;;;;;2.00;1.08;;;;;;;21.44;53.88;100448.34;5030266;28;20025;-91
2022/09/04 07:14:06;;;;;;;0.98;0.75;;;;;;;21.44;54.07;100461.47;5028473;28;20123;-92
2022/09/04 07:16:49;;;;;;;1.58;0.80;;;;;;;21.48;53.79;100471.41;5021104;28;20028;-82
2022/09/04 07:19:27;;;;;;;1.70;0.90;;;;;;;21.33;54.33;100480.91;5029146;28;20022;-78
2022/09/04 07:22:04;;;;;;;2.70;1.00;;;;;;;21.75;53.51;100487.72;5034106;28;20017;-92
2022/09/04 07:25:02;;;;;;;1.75;0.82;;;;;;;21.98;52.34;100485.38;5034127;28;20067;-92
2022/09/04 07:27:35;;;;;;;0.77;0.60;;;;;;;22.18;52.07;100498.94;5034021;28;20022;-92
2022/09/04 07:30:05;;;;;;;1.40;0.55;;;;;;;22.20;51.79;100507.66;5033858;28;20430;-91
2022/09/04 07:32:34;;;;;;;2.25;0.55;;;;;;;22.33;51.62;100512.44;5032318;28;20037;-90
2022/09/04 07:35:33;;;;;;;2.30;0.88;;;;;;;22.41;51.54;100513.22;5033812;28;20029;-89
2022/09/04 07:38:20;;;;;;;1.88;0.73;;;;;;;22.30;51.76;100521.59;5034141;28;20021;-76
2022/09/04 07:41:01;;;;;;;1.80;0.85;;;;;;;22.39;51.72;100527.56;5033924;28;20539;-78
2022/09/04 07:43:42;;;;;;;4.47;0.75;;;;;;;22.53;51.78;100526.75;5033825;28;20033;-89
2022/09/04 07:46:24;;;;;;;2.88;0.75;;;;;;;22.60;51.52;100532.31;5033404;28;20049;-78
2022/09/04 07:49:29;;;;;;;1.58;0.77;;;;;;;22.65;51.20;100537.47;5034447;28;20033;-75
2022/09/04 07:52:33;;;;;;;5.22;1.35;;;;;;;22.67;51.79;100532.31;5030248;28;20041;-79
2022/09/04 07:55:21;;;;;;;5.38;1.05;;;;;;;22.83;50.94;100536.66;5009044;28;20042;-76
2022/09/04 07:58:17;;;;;;;5.50;0.95;;;;;;;22.77;51.16;100535.47;5032576;28;20036;-76
2022/09/04 08:01:17;;;;;;;3.42;1.05;;;;;;;22.96;51.16;100537.81;5025195;28;20038;-76
2022/09/04 08:04:08;;;;;;;1.17;0.63;;;;;;;22.77;51.03;100554.97;5032477;28;20545;-76
2022/09/04 08:06:41;;;;;;;1.27;0.40;;;;;;;23.00;50.88;100558.13;5032407;28;20034;-75
2022/09/04 08:09:35;;;;;;;0.75;0.73;;;;;;;23.03;50.23;100567.66;5032435;28;20055;-81
2022/09/04 08:12:24;;;;;;;2.35;0.65;;;;;;;23.10;50.54;100565.66;5026032;28;20054;-81
2022/09/04 08:14:54;;;;;;;2.42;0.50;;;;;;;23.15;50.02;100568.03;5032278;28;20032;-84
2022/09/04 08:17:45;;;;;;;1.70;0.65;;;;;;;23.38;49.72;100580.69;5031278;28;20022;-76
2022/09/04 08:20:26;;;;;;;1.70;0.50;;;;;;;23.40;50.14;100583.88;5032344;28;20060;-74
2022/09/04 08:23:07;;;;;;;2.20;0.60;;;;;;;23.38;49.91;100589.84;5032254;28;20026;-75
2022/09/04 08:26:02;;;;;;;2.10;0.40;;;;;;;22.96;50.23;100591.56;5032138;28;20025;-76
2022/09/04 08:28:47;;;;;;;1.55;0.50;;;;;;;23.30;49.25;100598.66;5031636;28;20033;-76
2022/09/04 08:31:30;;;;;;;2.35;0.60;;;;;;;23.15;48.79;100604.25;5034730;28;20464;-79
2022/09/04 08:34:21;;;;;;;1.15;0.40;;;;;;;23.40;48.54;100623.69;5029124;28;20021;-77
2022/09/04 08:36:55;;;;;;;0.95;0.35;;;;;;;23.48;48.12;100632.84;5025143;28;20129;-77
2022/09/04 08:39:54;;;;;;;0.43;0.20;;;;;;;23.51;48.16;100635.63;5039490;28;20396;-77
2022/09/04 08:42:40;;;;;;;3.88;0.60;;;;;;;23.65;47.67;100648.72;5024635;28;20021;-78
2022/09/04 08:45:23;;;;;;;4.22;0.80;;;;;;;23.67;48.02;100651.13;5024315;28;20034;-77
2022/09/04 08:47:58;;;;;;;2.28;0.38;;;;;;;23.75;47.83;100667.44;5026098;28;20097;-79
2022/09/04 08:50:45;;;;;;;2.17;0.40;;;;;;;23.92;47.05;100676.13;5024275;28;20531;-77
2022/09/04 08:53:24;;;;;;;2.38;0.40;;;;;;;24.15;46.74;100681.22;5021502;28;20026;-77
2022/09/04 08:56:05;;;;;;;4.10;0.65;;;;;;;24.06;46.85;100690.03;5015959;28;20032;-78
2022/09/04 08:58:54;;;;;;;0.73;0.35;;;;;;;24.30;46.52;100697.47;5014997;28;20040;-77
2022/09/04 09:01:19;;;;;;;2.03;0.60;;;;;;;24.34;46.73;100703.88;5018055;28;20029;-79
2022/09/04 09:04:06;;;;;;;2.78;0.50;;;;;;;24.36;46.29;100711.84;5032186;28;20113;-77
2022/09/04 09:07:16;;;;;;;2.28;1.10;;;;;;;24.20;46.17;100725.44;5025274;28;20079;-79
2022/09/04 09:10:09;;;;;;;3.35;0.35;;;;;;;24.10;46.35;100718.69;5005643;28;20042;-79
2022/09/04 09:13:00;;;;;;;1.10;0.52;;;;;;;24.33;46.05;100721.00;5026882;28;20029;-78
2022/09/04 09:15:35;;;;;;;1.38;0.52;;;;;;;24.34;46.07;100726.22;5024429;28;20080;-79
2022/09/04 09:18:01;;;;;;;2.40;1.17;;;;;;;24.40;45.94;100720.19;5024475;28;20031;-79
2022/09/04 09:20:49;;;;;;;2.17;1.00;;;;;;;24.61;45.98;100722.84;5024977;28;20380;-78
2022/09/04 09:23:40;;;;;;;1.95;0.60;;;;;;;24.77;46.35;100730.72;5024872;28;20039;-78
2022/09/04 09:26:29;;;;;;;0.88;0.40;;;;;;;24.75;46.20;100721.94;5017454;28;20116;-78
2022/09/04 09:29:22;;;;;;;3.60;0.80;;;;;;;24.87;45.92;100722.25;5021026;28;20049;-79
2022/09/04 09:32:09;;;;;;;2.20;0.65;;;;;;;24.70;46.09;100714.78;5024493;28;20029;-79
2022/09/04 09:35:32;;;;;;;3.00;0.75;;;;;;;24.79;45.69;100731.91;5022758;28;20041;-75
2022/09/04 09:38:30;;;;;;;0.68;0.20;;;;;;;25.34;44.28;100747.84;4967572;28;20041;-76
2022/09/04 09:41:14;;;;;;;4.40;0.80;;;;;;;25.32;43.71;100738.28;4982866;28;20125;-76
2022/09/04 09:43:40;;;;;;;1.77;0.60;;;;;;;25.62;44.24;100735.59;5019518;28;20541;-77
2022/09/04 09:46:44;;;;;;;1.70;0.85;;;;;;;25.48;44.46;100735.72;5030068;28;20514;-76
2022/09/04 09:49:43;;;;;;;5.15;0.77;;;;;;;25.58;44.34;100745.22;5034713;28;20069;-90
2022/09/04 09:52:30;;;;;;;2.45;0.93;;;;;;;25.92;43.42;100748.06;5023213;28;20030;-78
2022/09/04 09:55:16;;;;;;;1.90;0.60;;;;;;;25.74;43.72;100745.47;5037033;28;20029;-78
2022/09/04 09:58:01;;;;;;;1.63;0.43;;;;;;;25.88;43.32;100748.09;5034333;28;20383;-77
2022/09/04 10:00:55;;;;;;;2.35;0.80;;;;;;;25.82;43.43;100752.56;5035059;28;20033;-90
2022/09/04 10:03:43;;;;;;;1.55;0.65;;;;;;;25.96;43.18;100754.41;5035359;28;20030;-89
2022/09/04 10:06:09;;;;;;;4.43;0.70;;;;;;;26.00;43.56;100752.38;5035866;28;20022;-80
2022/09/04 10:08:37;;;;;;;1.70;0.63;;;;;;;26.07;43.27;100751.47;5035493;28;20026;-91
2022/09/04 10:11:35;;;;;;;4.13;0.85;;;;;;;26.22;42.78;100766.88;5035565;28;20021;-89
2022/09/04 10:14:26;;;;;;;2.97;0.63;;;;;;;26.20;42.40;100755.31;5015426;28;20041;-85
2022/09/04 10:17:21;;;;;;;3.33;0.85;;;;;;;26.22;42.40;100761.28;5034068;28;20032;-93
2022/09/04 10:20:08;;;;;;;1.33;0.68;;;;;;;26.34;42.29;100774.75;5015482;28;20618;-84
2022/09/04 10:22:55;;;;;;;3.47;0.65;;;;;;;26.38;41.89;100772.69;5026323;28;20083;-93
2022/09/04 10:25:37;;;;;;;3.05;0.82;;;;;;;26.60;41.77;100780.81;5021531;28;20117;-84
2022/09/04 10:28:21;;;;;;;5.63;1.42;;;;;;;26.76;41.59;100778.22;5027002;28;20029;-85
2022/09/04 10:30:58;;;;;;;2.42;0.60;;;;;;;26.83;41.57;100780.91;5023686;28;20025;-79
2022/09/04 10:33:25;;;;;;;4.30;1.20;;;;;;;26.70;41.82;100777.09;5034403;28;20025;-78
2022/09/04 10:36:08;;;;;;;4.82;1.00;;;;;;;26.77;41.59;100777.00;5012993;28;20367;-79
2022/09/04 10:42:12;;;;;;;6.70;1.15;;;;;;;26.97;41.32;100788.28;5017937;28;20068;-93
2022/09/04 10:44:52;;;;;;;7.20;1.35;;;;;;;26.90;41.17;100779.97;5019515;28;20088;-92
2022/09/04 10:47:45;;;;;;;7.88;2.20;;;;;;;27.07;41.06;100788.16;5023606;28;20029;-81
2022/09/04 10:50:17;;;;;;;8.40;1.48;;;;;;;27.03;41.40;100792.19;5019830;28;20033;-93
2022/09/04 10:53:10;;;;;;;5.80;1.20;;;;;;;26.85;41.61;100789.69;5022540;28;20554;-90
2022/09/04 10:56:04;;;;;;;4.20;1.70;;;;;;;27.15;41.56;100799.28;5022142;28;20455;-78
2022/09/04 10:58:45;;;;;;;7.53;1.85;;;;;;;27.05;42.46;100801.81;5026232;28;20108;-83
2022/09/04 11:01:51;;;;;;;9.60;1.73;;;;;;;26.90;42.62;100786.38;5033772;28;20104;-83
2022/09/04 11:04:35;;;;;;;8.23;1.73;;;;;;;27.11;42.16;100779.69;5049057;28;20033;-85
2022/09/04 11:07:28;;;;;;;10.20;1.83;;;;;;;26.78;42.67;100787.78;5048727;28;20025;-82
2022/09/04 11:10:20;;;;;;;8.40;1.98;;;;;;;26.69;43.01;100797.94;5032541;28;20027;-83
2022/09/04 11:13:02;;;;;;;13.07;2.40;;;;;;;26.87;42.92;100789.25;5013287;28;20045;-83
2022/09/04 11:16:08;;;;;;;6.63;2.25;;;;;;;26.77;43.41;100788.19;5013236;28;20034;-82
2022/09/04 11:19:11;;;;;;;8.32;1.65;;;;;;;26.76;43.12;100789.41;5011881;28;20561;-83
2022/09/04 11:21:55;;;;;;;10.02;1.67;;;;;;;26.77;42.81;100788.19;5013296;28;20034;-83
2022/09/04 11:24:52;;;;;;;7.07;1.58;;;;;;;26.93;42.06;100788.34;5012035;28;20552;-83
2022/09/04 11:27:37;;;;;;;6.80;1.17;;;;;;;26.74;42.22;100791.84;5012526;28;20112;-78
2022/09/04 11:30:14;;;;;;;5.65;1.38;;;;;;;26.89;41.52;100796.00;5011870;28;20428;-79
2022/09/04 11:32:51;;;;;;;7.10;2.22;;;;;;;26.95;41.50;100785.13;5011991;28;20053;-81
2022/09/04 11:35:35;;;;;;;6.63;1.25;;;;;;;27.26;40.51;100797.06;5017326;28;20024;-82
2022/09/04 11:38:44;;;;;;;4.82;1.20;;;;;;;27.33;40.47;100800.53;5019140;28;20026;-84
2022/09/04 11:41:47;;;;;;;5.45;1.55;;;;;;;27.70;40.00;100797.94;5043416;28;20068;-81
2022/09/04 11:44:41;;;;;;;6.47;1.45;;;;;;;27.40;40.67;100787.63;5016994;28;20033;-82
2022/09/04 11:47:18;;;;;;;7.10;1.98;;;;;;;27.46;39.97;100795.13;5020573;28;20503;-84
2022/09/04 11:50:08;;;;;;;7.38;2.10;;;;;;;27.58;40.10;100802.94;5013009;28;20026;-81
2022/09/04 11:53:07;;;;;;;7.57;1.70;;;;;;;27.55;40.40;100795.34;5027599;28;20647;-82
2022/09/04 11:56:03;;;;;;;15.52;3.63;;;;;;;27.71;40.33;100808.72;5027658;28;20037;-81
2022/09/04 11:59:19;;;;;;;6.20;1.60;;;;;;;26.99;40.99;100809.09;5028409;28;20622;-81
2022/09/04 12:01:45;;;;;;;4.00;1.05;;;;;;;27.34;40.16;100804.16;5010520;28;20064;-81
2022/09/04 12:04:22;;;;;;;4.78;1.45;;;;;;;27.33;40.28;100803.34;5011680;28;20093;-81
2022/09/04 12:07:04;;;;;;;8.23;1.48;;;;;;;27.70;39.57;100823.19;5018972;28;20044;-82
2022/09/04 12:09:42;;;;;;;7.47;1.50;;;;;;;27.61;40.14;100827.34;5025628;28;20018;-81
2022/09/04 12:12:40;;;;;;;6.43;1.80;;;;;;;27.74;39.38;100824.75;5028500;28;20439;-83
2022/09/04 12:15:53;;;;;;;8.35;1.45;;;;;;;27.82;38.81;100836.63;5036692;28;20033;-83
2022/09/04 12:18:43;;;;;;;8.98;1.80;;;;;;;27.75;38.76;100847.97;5003420;28;20046;-82
2022/09/04 12:21:24;;;;;;;8.82;1.92;;;;;;;27.82;38.66;100848.66;5051840;28;20030;-83
2022/09/04 12:24:10;;;;;;;9.32;1.33;;;;;;;28.15;38.11;100841.19;5036580;28;20065;-83
2022/09/04 12:27:24;;;;;;;5.50;1.38;;;;;;;27.98;37.81;100847.94;5051786;28;20033;-83
2022/09/04 12:30:11;;;;;;;10.90;2.47;;;;;;;28.08;38.39;100844.13;4999711;28;20042;-83
2022/09/04 12:32:36;;;;;;;4.38;1.27;;;;;;;28.19;37.57;100849.56;5028681;28;20029;-90
2022/09/04 12:35:29;;;;;;;6.03;1.63;;;;;;;28.38;37.67;100845.19;5028448;28;20084;-83
2022/09/04 12:38:04;;;;;;;8.52;2.28;;;;;;;28.29;37.46;100859.78;5017435;28;20036;-82
2022/09/04 12:40:47;;;;;;;12.40;1.52;;;;;;;28.09;37.91;100850.53;5015062;28;20097;-81
2022/09/04 12:43:41;;;;;;;13.68;2.08;;;;;;;28.18;37.69;100856.38;5043795;28;20164;-82
2022/09/04 12:46:39;;;;;;;8.15;1.80;;;;;;;28.41;38.20;100849.94;5031458;28;20049;-83
2022/09/04 12:49:38;;;;;;;5.70;1.80;;;;;;;28.08;38.57;100849.75;5021192;28;20499;-78